Time;durP1;ratioP1;P1;durP2;ratioP2;P2;SDS_P1;SDS_P2;PMS_P1;PMS_P2;Temp;Humidity;BMP_temperature;BMP_pressure;BME280_temperature;BME280_humidity;BME280_pressure;Samples;Min_cycle;Max_cycle;Signal;HPM_P1;HPM_P2
2023/05/01 00:01:19;;;;;;;7.73;5.50;;;8.80;99.90;;;;;;5116150;28;20283;-72
2023/05/01 00:03:45;;;;;;;5.70;5.10;;;8.80;1.00;;;;;;5117414;28;20188;-72
2023/05/01 00:06:11;;;;;;;6.90;5.10;;;8.80;1.00;;;;;;5117407;28;20187;-72
2023/05/01 00:08:37;;;;;;;6.63;5.10;;;8.80;1.00;;;;;;5117181;28;20236;-72
2023/05/01 00:11:03;;;;;;;8.40;5.30;;;8.80;99.90;;;;;;5117273;28;20656;-72
2023/05/01 00:13:30;;;;;;;6.97;5.33;;;8.80;1.00;;;;;;5116851;28;20172;-72
2023/05/01 00:15:56;;;;;;;6.60;5.90;;;8.70;1.00;;;;;;5116966;28;20255;-72
2023/05/01 00:18:21;;;;;;;7.67;5.40;;;8.50;1.00;;;;;;5115569;28;20231;-72
2023/05/01 00:20:47;;;;;;;7.27;5.50;;;8.50;9.00;;;;;;5116737;28;20184;-72
2023/05/01 00:23:13;;;;;;;6.63;5.20;;;8.60;1.00;;;;;;5117081;28;20185;-72
2023/05/01 00:25:39;;;;;;;7.23;5.30;;;8.60;1.00;;;;;;5116550;28;20237;-72
2023/05/01 00:28:05;;;;;;;8.23;5.53;;;8.60;1.00;;;;;;5115281;28;20561;-72
2023/05/01 00:30:34;;;;;;;6.40;5.00;;;8.60;1.00;;;;;;5116458;27;20200;-72
2023/05/01 00:33:00;;;;;;;8.67;5.13;;;8.50;1.00;;;;;;5116506;28;20172;-72
2023/05/01 00:35:26;;;;;;;6.10;4.80;;;8.40;99.90;;;;;;5115271;28;20184;-72
2023/05/01 00:37:52;;;;;;;9.03;5.53;;;8.20;99.90;;;;;;5115168;28;20188;-72
2023/05/01 00:40:18;;;;;;;6.67;5.47;;;8.10;99.90;;;;;;5116369;28;20183;-72
2023/05/01 00:42:44;;;;;;;10.10;5.70;;;8.00;1.00;;;;;;5115085;28;20176;-72
2023/05/01 00:45:10;;;;;;;6.10;5.00;;;7.90;1.00;;;;;;5116225;28;20171;-72
2023/05/01 00:47:36;;;;;;;10.87;5.50;;;7.80;1.00;;;;;;5117282;27;20207;-72
2023/05/01 00:50:04;;;;;;;9.27;5.50;;;7.80;1.00;;;;;;5114834;28;20200;-72
2023/05/01 00:52:29;;;;;;;7.70;5.27;;;7.70;22.50;;;;;;5116353;28;20171;-73
2023/05/01 00:54:56;;;;;;;6.63;5.13;;;7.70;99.90;;;;;;5116208;27;20172;-72
2023/05/01 00:57:22;;;;;;;6.90;5.20;;;7.70;20.60;;;;;;5116201;28;20168;-72
2023/05/01 00:59:48;;;;;;;10.03;5.70;;;7.70;1.00;;;;;;5116716;28;20183;-72
2023/05/01 01:02:14;;;;;;;6.90;5.67;;;7.70;1.00;;;;;;5116473;28;20199;-72
2023/05/01 01:04:45;;;;;;;6.47;5.30;;;7.80;1.00;;;;;;5115123;28;20203;-72
2023/05/01 01:07:27;;;;;;;11.47;5.70;;;7.80;1.00;;;;;;5116176;28;20183;-72
2023/05/01 01:09:57;;;;;;;9.23;5.87;;;7.90;1.00;;;;;;5115686;28;20241;-71
2023/05/01 01:12:38;;;;;;;8.33;5.77;;;7.70;99.90;;;;;;5114175;28;20580;-72
2023/05/01 01:15:17;;;;;;;9.13;5.60;;;7.70;99.90;;;;;;5115700;28;20202;-71
2023/05/01 01:18:16;;;;;;;6.27;5.63;;;7.70;99.90;;;;;;5114132;28;20192;-71
2023/05/01 01:21:00;;;;;;;8.07;5.87;;;7.70;1.00;;;;;;5115594;28;20202;-72
2023/05/01 01:23:41;;;;;;;10.87;6.33;;;7.50;1.00;;;;;;5115613;28;20160;-72
2023/05/01 01:26:11;;;;;;;11.50;5.97;;;7.70;1.00;;;;;;5115294;28;20292;-72
2023/05/01 01:29:03;;;;;;;8.93;5.67;;;7.70;1.00;;;;;;5115128;28;20223;-72
2023/05/01 01:31:49;;;;;;;11.63;6.50;;;7.70;1.00;;;;;;5115404;28;20177;-72
2023/05/01 01:34:32;;;;;;;12.17;5.93;;;7.60;1.10;;;;;;5115636;28;20153;-71
2023/05/01 01:37:13;;;;;;;6.73;5.80;;;7.60;99.90;;;;;;5113813;28;20164;-72
2023/05/01 01:39:54;;;;;;;6.47;5.60;;;7.70;99.90;;;;;;5115094;28;20596;-72
2023/05/01 01:42:28;;;;;;;7.07;5.87;;;7.70;1.00;;;;;;5113490;28;20172;-72
2023/05/01 01:45:03;;;;;;;11.53;6.37;;;7.60;99.90;;;;;;5113700;28;20172;-72
2023/05/01 01:47:32;;;;;;;8.47;5.87;;;7.60;36.00;;;;;;5115085;28;20157;-72
2023/05/01 01:50:03;;;;;;;9.00;5.80;;;7.60;99.90;;;;;;5115076;28;20601;-72
2023/05/01 01:52:30;;;;;;;9.90;5.23;;;7.60;99.90;;;;;;5113527;28;20199;-72
2023/05/01 01:55:05;;;;;;;8.17;6.37;;;7.50;98.60;;;;;;5114415;28;20164;-72
2023/05/01 01:57:32;;;;;;;9.20;6.30;;;7.40;99.90;;;;;;5114440;28;20159;-72
2023/05/01 01:59:58;;;;;;;11.27;6.10;;;7.40;1.00;;;;;;5114511;28;20179;-72
2023/05/01 02:02:26;;;;;;;7.90;5.97;;;7.40;1.00;;;;;;5114447;28;20218;-72
2023/05/01 02:04:56;;;;;;;8.37;6.30;;;7.40;99.90;;;;;;5113557;28;20551;-72
2023/05/01 02:07:22;;;;;;;9.40;6.53;;;7.30;16.50;;;;;;5113237;28;20183;-72
2023/05/01 02:09:51;;;;;;;10.00;6.13;;;7.30;99.90;;;;;;5113439;28;20249;-71
2023/05/01 02:12:18;;;;;;;9.37;6.50;;;7.40;99.90;;;;;;5114450;28;20161;-71
2023/05/01 02:14:45;;;;;;;8.43;6.07;;;7.40;1.00;;;;;;5115085;28;20236;-71
2023/05/01 02:17:12;;;;;;;9.30;6.20;;;7.40;99.90;;;;;;5114303;28;20180;-71
2023/05/01 02:19:41;;;;;;;8.80;6.03;;;7.30;99.90;;;;;;5114703;28;20294;-71
2023/05/01 02:22:08;;;;;;;9.33;5.87;;;7.30;99.90;;;;;;5114215;28;20543;-71
2023/05/01 02:24:37;;;;;;;8.83;5.73;;;7.30;99.90;;;;;;5112952;28;20694;-71
2023/05/01 02:27:29;;;;;;;8.00;6.17;;;7.20;99.90;;;;;;5114228;28;20171;-71
2023/05/01 02:29:56;;;;;;;12.17;6.40;;;7.20;1.00;;;;;;5113118;28;20200;-71
2023/05/01 02:32:22;;;;;;;8.07;5.90;;;7.10;1.00;;;;;;5114132;27;20247;-70
2023/05/01 02:34:48;;;;;;;9.13;6.40;;;7.10;88.60;;;;;;5114126;28;20237;-71
2023/05/01 02:37:14;;;;;;;10.37;5.70;;;7.00;99.90;;;;;;5114721;28;20171;-71
2023/05/01 02:39:41;;;;;;;12.53;6.33;;;7.00;1.00;;;;;;5112927;28;20203;-70
2023/05/01 02:42:09;;;;;;;8.67;5.73;;;7.10;1.00;;;;;;5112760;28;20188;-71
2023/05/01 02:44:40;;;;;;;10.77;6.90;;;7.10;1.00;;;;;;5114257;28;20211;-70
2023/05/01 02:47:08;;;;;;;7.03;5.90;;;7.10;1.00;;;;;;5114275;28;20577;-70
2023/05/01 02:49:35;;;;;;;9.30;6.27;;;7.00;99.90;;;;;;5112652;28;20208;-70
2023/05/01 02:52:03;;;;;;;7.60;6.20;;;7.00;1.00;;;;;;5114215;28;20664;-68
2023/05/01 02:54:30;;;;;;;9.30;6.73;;;7.00;1.00;;;;;;5114264;28;20168;-68
2023/05/01 02:56:58;;;;;;;9.40;6.80;;;6.90;85.60;;;;;;5114530;28;20173;-70
2023/05/01 02:59:24;;;;;;;7.53;6.20;;;6.90;99.90;;;;;;5112966;28;20195;-69
2023/05/01 03:01:50;;;;;;;7.30;6.03;;;6.90;47.10;;;;;;5113970;28;20199;-71
2023/05/01 03:04:16;;;;;;;7.77;6.30;;;6.80;1.00;;;;;;5113852;28;20160;-71
2023/05/01 03:06:43;;;;;;;8.73;6.20;;;6.80;99.90;;;;;;5112739;28;20555;-71
2023/05/01 03:09:09;;;;;;;9.10;6.80;;;6.90;1.00;;;;;;5117049;28;20192;-71
2023/05/01 03:11:34;;;;;;;10.60;7.13;;;6.80;1.00;;;;;;5116644;28;20524;-70
2023/05/01 03:14:00;;;;;;;9.07;6.07;;;6.80;99.90;;;;;;5118718;28;20625;-70
2023/05/01 03:16:26;;;;;;;6.80;6.07;;;6.80;99.90;;;;;;5118087;28;20177;-71
2023/05/01 03:18:52;;;;;;;9.27;6.40;;;6.70;99.90;;;;;;5118408;28;20188;-71
2023/05/01 03:21:17;;;;;;;6.83;5.83;;;6.60;3.60;;;;;;5117920;28;20180;-71
2023/05/01 03:23:43;;;;;;;7.97;6.30;;;6.60;99.90;;;;;;5116577;28;20176;-71
2023/05/01 03:26:09;;;;;;;7.97;6.60;;;6.60;1.00;;;;;;5117886;28;20176;-71
2023/05/01 03:28:34;;;;;;;9.17;5.93;;;6.50;1.00;;;;;;5117662;28;20196;-71
2023/05/01 03:31:00;;;;;;;8.10;6.20;;;6.50;71.80;;;;;;5117633;28;20199;-71
2023/05/01 03:33:26;;;;;;;7.50;6.10;;;6.60;99.90;;;;;;5116414;28;20217;-71
2023/05/01 03:36:03;;;;;;;8.57;6.30;;;6.60;99.90;;;;;;5116242;28;20184;-71
2023/05/01 03:38:32;;;;;;;8.53;6.70;;;6.50;1.00;;;;;;5116302;28;20203;-71
2023/05/01 03:40:58;;;;;;;6.90;5.63;;;6.50;99.90;;;;;;5117242;28;20218;-72
2023/05/01 03:43:25;;;;;;;8.43;6.47;;;6.50;1.00;;;;;;5116200;28;20172;-71
2023/05/01 03:45:51;;;;;;;8.43;6.10;;;6.50;1.00;;;;;;5117466;28;20207;-71
2023/05/01 03:48:21;;;;;;;10.07;5.83;;;6.60;1.00;;;;;;5116131;28;20248;-71
2023/05/01 03:50:46;;;;;;;7.17;6.37;;;6.60;1.00;;;;;;5116024;28;20204;-71
2023/05/01 03:53:12;;;;;;;11.03;6.30;;;6.60;1.00;;;;;;5116010;28;20641;-71
2023/05/01 03:55:39;;;;;;;10.03;6.80;;;6.50;1.00;;;;;;5117446;28;20161;-71
2023/05/01 03:58:06;;;;;;;7.33;6.13;;;6.60;1.00;;;;;;5117365;28;20240;-70
2023/05/01 04:00:32;;;;;;;9.00;6.63;;;6.60;1.00;;;;;;5116666;28;20181;-71
2023/05/01 04:02:58;;;;;;;8.90;6.33;;;6.60;99.90;;;;;;5114536;28;20180;-72
2023/05/01 04:05:24;;;;;;;8.07;6.23;;;6.60;33.70;;;;;;5116110;28;20187;-71
2023/05/01 04:07:49;;;;;;;9.70;7.00;;;6.60;99.90;;;;;;5114430;28;20279;-71
2023/05/01 04:10:16;;;;;;;9.83;6.27;;;6.50;1.00;;;;;;5115968;28;20200;-71
2023/05/01 04:12:42;;;;;;;8.13;6.33;;;6.50;99.90;;;;;;5114197;28;20183;-71
2023/05/01 04:15:08;;;;;;;9.00;6.17;;;6.50;1.00;;;;;;5115694;28;20169;-71
2023/05/01 04:17:37;;;;;;;7.93;6.43;;;6.60;99.90;;;;;;5115511;28;20169;-71
2023/05/01 04:20:05;;;;;;;9.83;6.10;;;6.60;1.00;;;;;;5115176;28;20702;-71
2023/05/01 04:22:31;;;;;;;8.57;6.33;;;6.60;1.00;;;;;;5115551;28;20632;-71
2023/05/01 04:24:57;;;;;;;9.73;6.70;;;6.60;1.00;;;;;;5115581;28;20176;-71
2023/05/01 04:27:23;;;;;;;10.53;7.20;;;6.60;1.00;;;;;;5115354;28;20173;-72
2023/05/01 04:29:49;;;;;;;9.70;6.53;;;6.70;96.90;;;;;;5115504;28;20283;-71
2023/05/01 04:32:16;;;;;;;9.80;6.50;;;6.70;1.00;;;;;;5114225;28;20177;-71
2023/05/01 04:34:43;;;;;;;9.40;6.57;;;6.70;99.90;;;;;;5115292;28;20276;-71
2023/05/01 04:37:09;;;;;;;7.63;6.17;;;6.70;1.00;;;;;;5115252;28;20636;-71
2023/05/01 04:39:35;;;;;;;9.40;6.80;;;6.80;99.90;;;;;;5115499;28;20203;-70
2023/05/01 04:42:02;;;;;;;9.13;5.83;;;6.80;2.30;;;;;;5113795;28;20176;-70
2023/05/01 04:44:28;;;;;;;6.77;6.00;;;6.70;99.90;;;;;;5115312;28;20164;-71
2023/05/01 04:46:53;;;;;;;8.27;6.73;;;6.70;1.00;;;;;;5113888;28;20172;-71
2023/05/01 04:49:21;;;;;;;7.60;6.37;;;6.70;1.00;;;;;;5114945;28;20192;-71
2023/05/01 04:51:47;;;;;;;8.97;7.13;;;6.70;99.90;;;;;;5115436;28;20192;-71
2023/05/01 04:54:13;;;;;;;8.63;6.60;;;6.70;1.00;;;;;;5113828;28;20183;-72
2023/05/01 04:56:39;;;;;;;8.57;6.80;;;6.80;99.90;;;;;;5113848;28;20184;-71
2023/05/01 04:59:04;;;;;;;10.83;6.53;;;6.90;45.10;;;;;;5115097;28;20185;-71
2023/05/01 05:01:30;;;;;;;10.80;6.90;;;7.00;99.90;;;;;;5067154;28;1363078;-71
2023/05/01 05:03:56;;;;;;;8.73;6.33;;;7.10;99.90;;;;;;5116099;28;20172;-71
2023/05/01 05:06:22;;;;;;;6.87;6.17;;;7.10;99.90;;;;;;5115640;28;20188;-71
2023/05/01 05:08:50;;;;;;;9.33;6.57;;;7.20;1.00;;;;;;5114280;28;20234;-71
2023/05/01 05:11:17;;;;;;;8.33;6.47;;;7.30;93.50;;;;;;5115841;28;20200;-71
2023/05/01 05:13:44;;;;;;;11.10;6.90;;;7.30;99.90;;;;;;5114515;28;20172;-71
2023/05/01 05:16:09;;;;;;;9.80;6.40;;;7.30;99.90;;;;;;5115683;28;20169;-71
2023/05/01 05:18:35;;;;;;;10.50;6.60;;;7.40;99.90;;;;;;5115923;28;20267;-71
2023/05/01 05:21:05;;;;;;;9.27;6.30;;;7.40;1.00;;;;;;5114414;28;20184;-71
2023/05/01 05:23:31;;;;;;;8.47;6.20;;;7.50;99.90;;;;;;5115833;28;20284;-70
2023/05/01 05:26:00;;;;;;;10.60;6.50;;;7.60;99.90;;;;;;5115370;28;20745;-70
2023/05/01 05:28:26;;;;;;;9.67;6.63;;;7.60;99.90;;;;;;5114101;28;20239;-71
2023/05/01 05:30:53;;;;;;;12.10;6.37;;;7.70;1.00;;;;;;5114809;28;20296;-71
2023/05/01 05:33:18;;;;;;;10.30;7.03;;;7.70;99.90;;;;;;5114122;28;20256;-71
2023/05/01 05:35:44;;;;;;;9.17;6.90;;;7.80;2.10;;;;;;5115617;28;20212;-71
2023/05/01 05:38:10;;;;;;;7.97;6.77;;;7.80;1.00;;;;;;5113942;28;20708;-72
2023/05/01 05:40:36;;;;;;;10.80;6.77;;;7.90;99.90;;;;;;5115041;28;20181;-71
2023/05/01 05:43:02;;;;;;;8.60;6.40;;;7.90;1.00;;;;;;5114192;28;20637;-71
2023/05/01 05:45:28;;;;;;;10.03;7.50;;;8.10;1.00;;;;;;5113958;28;20271;-71
2023/05/01 05:47:53;;;;;;;7.83;6.50;;;8.20;99.90;;;;;;5115027;28;20196;-71
2023/05/01 05:50:19;;;;;;;10.50;6.50;;;8.30;1.00;;;;;;5115537;28;20553;-72
2023/05/01 05:52:45;;;;;;;8.57;6.50;;;8.40;41.60;;;;;;5115675;28;20165;-69
2023/05/01 05:55:11;;;;;;;10.17;6.50;;;8.50;1.00;;;;;;5116398;28;20157;-69
2023/05/01 05:57:37;;;;;;;7.90;6.47;;;8.70;99.90;;;;;;5118158;28;20584;-69
2023/05/01 06:00:06;;;;;;;10.87;7.07;;;8.70;1.00;;;;;;5115062;28;20218;-70
2023/05/01 06:02:32;;;;;;;8.73;6.73;;;8.90;1.00;;;;;;5114588;28;20180;-69
2023/05/01 06:04:58;;;;;;;11.07;6.50;;;9.10;99.90;;;;;;5114171;28;20671;-69
2023/05/01 06:07:24;;;;;;;9.80;7.30;;;9.30;1.00;;;;;;5115183;28;20168;-70
2023/05/01 06:09:50;;;;;;;9.83;7.07;;;9.50;99.90;;;;;;5114744;28;20188;-69
2023/05/01 06:12:16;;;;;;;11.70;6.70;;;9.70;99.90;;;;;;5115122;28;20251;-69
2023/05/01 06:14:42;;;;;;;9.17;6.77;;;9.90;1.00;;;;;;5115489;28;20180;-69
2023/05/01 06:17:08;;;;;;;8.17;6.40;;;10.10;1.00;;;;;;5113545;28;20172;-69
2023/05/01 06:19:34;;;;;;;9.73;6.57;;;10.20;99.90;;;;;;5114597;28;20660;-69
2023/05/01 06:22:00;;;;;;;8.47;6.73;;;10.30;1.00;;;;;;5114479;28;20164;-69
2023/05/01 06:24:26;;;;;;;7.80;6.20;;;10.50;1.00;;;;;;5113057;28;20180;-69
2023/05/01 06:26:52;;;;;;;11.87;6.57;;;10.50;1.00;;;;;;5112866;28;20656;-69
2023/05/01 06:29:18;;;;;;;9.03;6.43;;;10.60;1.00;;;;;;5114379;28;20192;-69
2023/05/01 06:31:44;;;;;;;8.83;5.97;;;10.80;1.00;;;;;;5114447;28;20647;-69
2023/05/01 06:34:10;;;;;;;8.10;6.43;;;10.90;99.90;;;;;;5112707;28;20234;-69
2023/05/01 06:36:36;;;;;;;10.55;6.10;;;11.10;1.00;;;;;;5114523;28;20183;-69
2023/05/01 06:39:02;;;;;;;8.77;6.70;;;11.10;99.90;;;;;;5112894;28;20200;-68
2023/05/01 06:41:27;;;;;;;8.70;6.33;;;11.20;1.00;;;;;;5112601;28;20180;-68
2023/05/01 06:43:53;;;;;;;11.88;6.05;;;11.40;1.00;;;;;;5112750;28;20606;-68
2023/05/01 06:46:19;;;;;;;6.93;5.83;;;11.50;1.00;;;;;;5114027;28;20645;-68
2023/05/01 06:48:45;;;;;;;9.30;5.78;;;11.60;1.00;;;;;;5114421;28;20257;-68
2023/05/01 06:51:13;;;;;;;8.57;6.35;;;11.70;99.90;;;;;;5112540;28;20196;-68
2023/05/01 06:53:40;;;;;;;9.23;5.57;;;11.80;99.90;;;;;;5114034;28;20172;-68
2023/05/01 06:56:07;;;;;;;9.13;6.00;;;11.80;99.90;;;;;;5113626;28;20243;-68
2023/05/01 06:58:32;;;;;;;6.57;4.95;;;11.90;1.00;;;;;;5112945;28;20671;-68
2023/05/01 07:00:58;;;;;;;8.32;5.25;;;11.90;1.00;;;;;;5113851;28;20192;-68
2023/05/01 07:03:26;;;;;;;8.00;5.75;;;12.00;1.00;;;;;;5113895;28;20184;-68
2023/05/01 07:05:53;;;;;;;7.30;5.53;;;12.10;1.00;;;;;;5113709;28;20636;-68
2023/05/01 07:08:18;;;;;;;5.68;5.05;;;12.20;1.00;;;;;;5112579;28;20668;-68
2023/05/01 07:10:44;;;;;;;6.63;4.82;;;12.30;99.90;;;;;;5113521;28;20200;-69
2023/05/01 07:13:10;;;;;;;7.43;4.95;;;12.40;99.90;;;;;;5112387;28;20225;-68
2023/05/01 07:15:36;;;;;;;8.55;5.15;;;12.50;99.90;;;;;;5114589;28;20175;-71
2023/05/01 07:18:04;;;;;;;9.75;4.70;;;12.60;99.90;;;;;;5115003;28;20221;-72
2023/05/01 07:20:31;;;;;;;7.15;4.55;;;12.70;99.90;;;;;;5114431;28;20160;-69
2023/05/01 07:22:58;;;;;;;6.43;4.70;;;12.90;99.90;;;;;;5112317;28;20180;-69
2023/05/01 07:25:24;;;;;;;7.20;4.55;;;13.00;99.90;;;;;;5114171;28;20184;-68
2023/05/01 07:27:50;;;;;;;6.90;4.72;;;13.10;99.90;;;;;;5113430;28;20276;-69
2023/05/01 07:30:15;;;;;;;6.03;4.70;;;13.20;99.90;;;;;;5113450;28;20607;-69
2023/05/01 07:32:41;;;;;;;7.13;5.30;;;13.50;99.90;;;;;;5114088;28;20251;-69
2023/05/01 07:35:07;;;;;;;6.60;4.55;;;13.60;99.90;;;;;;5121544;28;20204;-69
2023/05/01 07:37:33;;;;;;;5.85;4.60;;;13.70;33.40;;;;;;5134161;27;20176;-69
2023/05/01 07:39:59;;;;;;;7.15;5.00;;;13.90;12.00;;;;;;5134206;27;20172;-69
2023/05/01 07:42:28;;;;;;;8.98;4.60;;;14.20;1.00;;;;;;5134714;28;20176;-69
2023/05/01 07:44:54;;;;;;;5.78;4.57;;;14.30;1.00;;;;;;5134171;27;20648;-71
2023/05/01 07:47:20;;;;;;;4.15;3.80;;;14.40;1.00;;;;;;5134080;27;20168;-71
2023/05/01 07:49:45;;;;;;;6.80;4.13;;;14.50;1.00;;;;;;5134021;27;20243;-70
2023/05/01 07:52:11;;;;;;;5.32;4.70;;;14.30;1.00;;;;;;5133495;28;20256;-71
2023/05/01 07:54:37;;;;;;;6.18;4.85;;;14.30;1.00;;;;;;5135504;27;20248;-71
2023/05/01 07:57:05;;;;;;;7.38;4.35;;;14.40;1.00;;;;;;5138066;27;20656;-71
2023/05/01 07:59:31;;;;;;;4.82;3.90;;;14.50;1.00;;;;;;5136997;27;20503;-71
2023/05/01 08:01:56;;;;;;;6.93;4.75;;;14.60;1.00;;;;;;5138392;27;20184;-71
2023/05/01 08:04:22;;;;;;;4.85;4.32;;;14.70;1.00;;;;;;5134784;27;20167;-71
2023/05/01 08:06:51;;;;;;;6.72;4.22;;;14.80;1.00;;;;;;5115790;28;20204;-71
2023/05/01 08:09:17;;;;;;;7.78;3.95;;;14.80;1.00;;;;;;5117157;28;20192;-71
2023/05/01 08:11:42;;;;;;;5.70;3.90;;;15.00;1.00;;;;;;5115541;28;20268;-72
2023/05/01 08:14:08;;;;;;;6.22;4.10;;;14.90;1.00;;;;;;5115725;28;20271;-71
2023/05/01 08:16:34;;;;;;;5.38;3.90;;;15.00;1.00;;;;;;5117043;28;20173;-71
2023/05/01 08:19:00;;;;;;;4.75;3.47;;;15.10;1.00;;;;;;5116746;28;20193;-71
2023/05/01 08:21:26;;;;;;;4.30;3.47;;;15.20;1.00;;;;;;5117238;28;20249;-71
2023/05/01 08:23:55;;;;;;;5.88;4.32;;;15.30;1.00;;;;;;5117627;28;20260;-68
2023/05/01 08:26:21;;;;;;;5.20;4.32;;;15.20;1.00;;;;;;5116560;28;20168;-68
2023/05/01 08:28:47;;;;;;;4.82;3.78;;;15.20;1.00;;;;;;5116619;28;20196;-68
2023/05/01 08:31:13;;;;;;;4.53;3.55;;;15.30;1.00;;;;;;5116866;28;20196;-67
2023/05/01 08:33:44;;;;;;;4.57;3.63;;;15.20;1.00;;;;;;5117172;28;20173;-68
2023/05/01 08:36:10;;;;;;;6.43;3.72;;;15.40;1.00;;;;;;5116908;28;20172;-68
2023/05/01 08:38:36;;;;;;;4.45;3.80;;;15.50;1.00;;;;;;5116264;28;20188;-68
2023/05/01 08:41:03;;;;;;;3.83;3.30;;;15.70;1.00;;;;;;5117481;28;20179;-71
2023/05/01 08:43:30;;;;;;;6.72;3.97;;;15.70;1.00;;;;;;5116661;28;20168;-71
2023/05/01 08:45:59;;;;;;;4.88;3.63;;;15.80;1.00;;;;;;5116625;28;20164;-71
2023/05/01 08:48:28;;;;;;;4.82;3.30;;;15.90;1.00;;;;;;5116406;28;20660;-72
2023/05/01 08:50:58;;;;;;;3.88;3.30;;;15.80;1.00;;;;;;5114895;28;20211;-71
2023/05/01 08:53:25;;;;;;;5.20;3.40;;;15.90;1.00;;;;;;5115104;28;20192;-71
2023/05/01 08:55:52;;;;;;;4.72;3.67;;;16.10;1.00;;;;;;5116549;28;20175;-71
2023/05/01 08:58:20;;;;;;;3.63;3.10;;;16.40;1.00;;;;;;5114566;28;20202;-71
2023/05/01 09:00:46;;;;;;;5.18;3.25;;;16.80;1.00;;;;;;5115708;28;20229;-71
2023/05/01 09:03:15;;;;;;;5.97;3.30;;;17.10;1.00;;;;;;5115347;28;20177;-69
2023/05/01 09:05:41;;;;;;;4.47;3.10;;;17.40;1.00;;;;;;5115508;28;20255;-68
2023/05/01 09:08:07;;;;;;;4.15;3.03;;;17.80;1.00;;;;;;5114448;28;20612;-67
2023/05/01 09:10:38;;;;;;;6.57;3.30;;;18.10;1.00;;;;;;5114395;28;20295;-67
2023/05/01 09:13:05;;;;;;;5.35;3.25;;;18.20;1.00;;;;;;5114325;28;20267;-68
2023/05/01 09:15:32;;;;;;;5.15;3.22;;;18.30;1.00;;;;;;5115534;28;20183;-67
2023/05/01 09:18:00;;;;;;;6.53;3.13;;;18.30;1.00;;;;;;5115406;28;20249;-67
2023/05/01 09:20:28;;;;;;;4.57;3.22;;;18.30;1.00;;;;;;5116476;28;20214;-71
2023/05/01 09:22:56;;;;;;;4.18;3.30;;;18.10;1.00;;;;;;5116237;28;20164;-71
2023/05/01 09:25:21;;;;;;;4.57;3.33;;;17.80;1.00;;;;;;5114314;28;20169;-70
2023/05/01 09:27:48;;;;;;;3.13;2.90;;;17.70;1.00;;;;;;5115365;28;20192;-70
2023/05/01 09:30:34;;;;;;;4.18;3.45;;;17.50;1.00;;;;;;5115247;28;20192;-70
2023/05/01 09:33:07;;;;;;;6.13;3.38;;;17.60;1.00;;;;;;5114178;28;20168;-70
2023/05/01 09:35:48;;;;;;;4.78;3.28;;;17.70;1.00;;;;;;5115490;28;20172;-70
2023/05/01 09:38:18;;;;;;;4.82;2.97;;;17.80;1.00;;;;;;5115490;28;20681;-70
2023/05/01 09:40:45;;;;;;;5.10;3.50;;;18.30;1.00;;;;;;5115390;28;20167;-70
2023/05/01 09:43:11;;;;;;;4.70;3.10;;;18.80;1.00;;;;;;5115117;28;20523;-70
2023/05/01 09:45:39;;;;;;;4.22;2.90;;;19.60;1.00;;;;;;5113794;28;20176;-70
2023/05/01 09:48:12;;;;;;;3.78;2.80;;;20.10;1.00;;;;;;5115373;28;20271;-70
2023/05/01 09:50:41;;;;;;;6.55;3.10;;;20.30;1.00;;;;;;5113690;28;20237;-70
2023/05/01 09:53:07;;;;;;;5.10;2.90;;;20.40;1.00;;;;;;5115348;28;20192;-70
2023/05/01 09:55:33;;;;;;;3.03;2.72;;;20.30;1.00;;;;;;5115294;28;20199;-70
2023/05/01 09:57:59;;;;;;;6.55;3.42;;;20.20;1.00;;;;;;5113796;28;20192;-69
2023/05/01 10:00:25;;;;;;;3.88;2.88;;;19.90;1.00;;;;;;5115057;28;20237;-70
2023/05/01 10:02:52;;;;;;;2.85;2.60;;;19.90;1.00;;;;;;5115334;28;20157;-70
2023/05/01 10:05:18;;;;;;;4.85;2.60;;;20.30;1.00;;;;;;5114855;28;20177;-70
2023/05/01 10:08:02;;;;;;;4.15;2.72;;;20.90;1.00;;;;;;5115046;28;20172;-70
2023/05/01 10:10:28;;;;;;;3.15;2.78;;;21.10;1.00;;;;;;5113744;28;20203;-70
2023/05/01 10:12:54;;;;;;;2.97;2.67;;;20.90;1.00;;;;;;5114797;28;20566;-70
2023/05/01 10:15:20;;;;;;;5.10;2.58;;;21.00;1.00;;;;;;5113375;28;20172;-70
2023/05/01 10:17:50;;;;;;;4.35;2.60;;;21.20;1.00;;;;;;5114524;27;20585;-70
2023/05/01 10:20:16;;;;;;;3.13;2.60;;;21.30;1.00;;;;;;5113580;28;20176;-68
2023/05/01 10:22:43;;;;;;;2.38;2.17;;;20.80;1.00;;;;;;5113252;28;20183;-68
2023/05/01 10:25:13;;;;;;;2.95;2.50;;;20.80;1.00;;;;;;5114526;28;20176;-68
2023/05/01 10:27:40;;;;;;;2.80;2.50;;;20.80;1.00;;;;;;5112838;28;20176;-68
2023/05/01 10:30:06;;;;;;;2.78;2.30;;;20.70;1.00;;;;;;5112909;28;20551;-69
2023/05/01 10:32:33;;;;;;;2.95;2.50;;;20.50;1.00;;;;;;5114247;28;20172;-67
2023/05/01 10:35:10;;;;;;;4.10;3.13;;;20.60;1.00;;;;;;5113075;28;20552;-68
2023/05/01 10:37:45;;;;;;;3.97;2.53;;;20.30;1.00;;;;;;5114115;28;20163;-68
2023/05/01 10:40:38;;;;;;;5.00;2.55;;;20.00;1.00;;;;;;5112836;28;20160;-68
2023/05/01 10:43:29;;;;;;;3.45;2.50;;;19.90;1.00;;;;;;5112713;28;20176;-68
2023/05/01 10:46:07;;;;;;;2.80;2.42;;;19.80;1.00;;;;;;5114106;28;20235;-68
2023/05/01 10:48:42;;;;;;;2.22;2.03;;;19.40;1.00;;;;;;5112601;28;20196;-68
2023/05/01 10:51:09;;;;;;;3.33;2.40;;;19.20;1.00;;;;;;5114476;28;20202;-68
2023/05/01 10:53:36;;;;;;;2.28;2.08;;;19.10;1.00;;;;;;5113977;28;20164;-68
2023/05/01 10:56:04;;;;;;;2.25;2.13;;;19.30;1.00;;;;;;5114148;28;20169;-68
2023/05/01 10:58:36;;;;;;;2.38;2.03;;;19.60;1.00;;;;;;5113640;28;20195;-68
2023/05/01 11:01:30;;;;;;;2.58;2.03;;;19.80;1.00;;;;;;5113766;28;20190;-68
2023/05/01 11:03:57;;;;;;;2.50;2.30;;;19.90;1.00;;;;;;5113764;28;20169;-68
2023/05/01 11:06:23;;;;;;;3.10;2.30;;;20.00;1.00;;;;;;5113857;28;20204;-68
2023/05/01 11:08:50;;;;;;;3.33;2.15;;;20.00;1.00;;;;;;5113838;28;20256;-68
2023/05/01 11:11:18;;;;;;;2.33;2.13;;;20.10;1.00;;;;;;5112363;28;20207;-68
2023/05/01 11:14:03;;;;;;;2.35;2.15;;;20.30;1.00;;;;;;5113830;28;20168;-68
2023/05/01 11:16:38;;;;;;;2.97;2.35;;;20.30;1.00;;;;;;5112724;28;20267;-68
2023/05/01 11:19:04;;;;;;;3.25;2.20;;;20.20;1.00;;;;;;5112569;28;20256;-68
2023/05/01 11:21:35;;;;;;;3.75;2.70;;;20.10;1.00;;;;;;5114043;28;20173;-68
2023/05/01 11:24:02;;;;;;;3.67;2.80;;;19.70;1.00;;;;;;5113758;28;20161;-68
2023/05/01 11:26:28;;;;;;;3.72;2.97;;;19.60;1.00;;;;;;5113829;28;20178;-68
2023/05/01 11:28:57;;;;;;;7.18;3.10;;;19.40;1.00;;;;;;5113530;28;20566;-67
2023/05/01 11:31:25;;;;;;;3.20;2.72;;;19.40;1.00;;;;;;5117640;28;20657;-67
2023/05/01 11:33:54;;;;;;;2.80;2.50;;;19.60;1.00;;;;;;5119280;27;20173;-67
2023/05/01 11:36:20;;;;;;;3.33;2.60;;;19.80;1.00;;;;;;5119322;28;20169;-68
2023/05/01 11:38:55;;;;;;;4.70;3.13;;;19.80;1.00;;;;;;5119807;28;20546;-68
2023/05/01 11:41:21;;;;;;;4.00;2.90;;;19.80;1.00;;;;;;5119894;28;20149;-69
2023/05/01 11:43:51;;;;;;;3.47;3.05;;;19.70;1.00;;;;;;5118348;28;20184;-68
2023/05/01 11:46:27;;;;;;;2.90;2.63;;;19.50;1.00;;;;;;5119040;28;20257;-68
2023/05/01 11:48:55;;;;;;;5.15;2.90;;;19.40;1.00;;;;;;5119937;28;20195;-68
2023/05/01 11:51:20;;;;;;;3.17;2.88;;;19.20;1.00;;;;;;5118251;28;20249;-68
2023/05/01 11:54:08;;;;;;;3.60;3.00;;;19.10;1.00;;;;;;5117995;28;20165;-68
2023/05/01 11:56:35;;;;;;;3.58;3.20;;;18.90;1.00;;;;;;5118003;28;20159;-68
2023/05/01 11:59:29;;;;;;;3.65;2.83;;;18.80;1.00;;;;;;5116598;28;20202;-68
2023/05/01 12:01:55;;;;;;;3.47;3.10;;;18.60;1.00;;;;;;5113714;28;20204;-68
2023/05/01 12:04:27;;;;;;;4.60;3.10;;;18.60;1.00;;;;;;5116006;28;20226;-68
2023/05/01 12:06:53;;;;;;;3.75;2.90;;;18.50;1.00;;;;;;5117075;28;20173;-68
2023/05/01 12:09:25;;;;;;;4.18;3.17;;;18.50;1.00;;;;;;5116441;28;20200;-68
2023/05/01 12:11:52;;;;;;;4.63;3.08;;;18.60;1.00;;;;;;5117754;28;20200;-68
2023/05/01 12:14:19;;;;;;;5.15;2.92;;;18.60;1.00;;;;;;5117593;28;20192;-68
2023/05/01 12:16:45;;;;;;;3.72;2.78;;;18.70;1.00;;;;;;5117436;28;20157;-68
2023/05/01 12:19:14;;;;;;;5.28;2.90;;;18.80;1.00;;;;;;5115563;28;20219;-68
2023/05/01 12:21:40;;;;;;;5.40;3.10;;;18.80;1.00;;;;;;5116947;28;20225;-68
2023/05/01 12:24:08;;;;;;;3.95;3.03;;;18.90;1.00;;;;;;5115748;28;20224;-68
2023/05/01 12:26:33;;;;;;;4.32;2.65;;;18.90;1.00;;;;;;5116387;28;20271;-68
2023/05/01 12:29:04;;;;;;;4.35;2.97;;;18.90;1.00;;;;;;5117256;28;20703;-68
2023/05/01 12:31:30;;;;;;;6.30;3.10;;;18.80;1.00;;;;;;5117420;28;20282;-68
2023/05/01 12:33:58;;;;;;;5.82;2.63;;;18.80;1.00;;;;;;5116930;27;20169;-68
2023/05/01 12:36:27;;;;;;;5.60;2.47;;;18.80;1.00;;;;;;5116634;28;20173;-68
2023/05/01 12:39:00;;;;;;;3.30;2.80;;;18.60;1.00;;;;;;5117748;28;20682;-68
2023/05/01 12:41:34;;;;;;;4.68;2.38;;;18.60;1.00;;;;;;5116720;28;20172;-68
2023/05/01 12:44:00;;;;;;;3.00;2.30;;;18.60;1.00;;;;;;5115180;28;20712;-68
2023/05/01 12:46:26;;;;;;;2.72;2.47;;;18.70;1.00;;;;;;5117167;28;20187;-68
2023/05/01 12:48:54;;;;;;;3.90;2.40;;;18.80;1.00;;;;;;5117365;28;20656;-68
2023/05/01 12:51:20;;;;;;;3.58;2.50;;;18.90;1.00;;;;;;5116011;28;20253;-68
2023/05/01 12:53:47;;;;;;;3.92;2.50;;;19.00;1.00;;;;;;5116507;28;20214;-68
2023/05/01 12:56:23;;;;;;;6.47;3.53;;;19.10;1.00;;;;;;5116846;28;20566;-68
2023/05/01 12:58:50;;;;;;;5.88;3.05;;;19.10;1.00;;;;;;5114684;28;20223;-68
2023/05/01 13:01:26;;;;;;;5.65;2.60;;;19.30;1.00;;;;;;5115209;28;20283;-68
2023/05/01 13:03:55;;;;;;;6.25;3.13;;;19.60;1.00;;;;;;5116769;28;20172;-68